Aviation Digital Data Service (ADDS)

Output produced by METARs form (1750 UTC 21 September 2019)
found at http://aviationweather.gov/metar/data/
 
KLBX 211653Z AUTO 12009KT 10SM FEW029 31/23 A3008 RMK AO2 SLP185 T03060233
KLBX 211720Z 2118/2218 12010KT P6SM FEW030 
     FM220300 14006KT P6SM SCT100 
     FM221500 14009KT P6SM SCT040